KBUU

Burlington Municipal Airport

Burlington, Wisconsin, USA
METAR KBUU 170730Z AUTO 07005KT 7SM OVC010 10/10 A3010 RMK AO2 T01000100
Observed Flight Rules
Dec-17 @ 07:30 UTC (38 minutes ago) Marginal Visual Flight Rules
Wind Visibility Clouds
70° at 5 knots 7 miles
  • Overcast at 1,000' AGL
Temperatures Readings
Current 10°C / 50°F
Dewpoint 10°C / 50°F
Humidity 100%
Altimeter 30.1" Hg
Pressure 1019 hPa
Elevation 237
METAR KBUU 170730Z AUTO 07005KT 7SM OVC010 10/10 A3010 RMK AO2 T01000100
Observed Flight Rules
Dec-17 @ 07:30 UTC
(38 minutes ago)
MVFR
Wind Visibility
70° at 5 knots 7 miles
Clouds
  • Overcast at 1,000' AGL
Temperature Dewpoint
10°C / 50°F 10°C / 50°F
Humidity Altimeter Pressure
100% 30.1" Hg 1019 hPa